FFT3219 KDEN-KSLC
Flight info
| Callsign | FFT3219 |
|---|---|
| Flight time | N/A |
| Altitude | 36000 |
| Route | ZIMMR4 CHNGY EKR PITTT2 |
| Aircraft | A20N/M-SDE2E3FGHIRWXY/LB1 |
Departure
| Time | N/A |
|---|---|
| Airport | Denver International Airport (KDEN) |
Arrival
| Time | 2026-05-06 02:30 |
|---|---|
| Airport | Salt Lake City International Airport (KSLC) |
| Time | Latitude | Longitude | Altitude | Speed | Heading |
|---|---|---|---|---|---|
| 2026-05-06 01:42 | 40.06374 | -107.80955 | 35827 ft | 402 kts | 272° |
| 2026-05-06 01:42 | 40.06491 | -107.84552 | 35926 ft | 402 kts | 272° |
| 2026-05-06 01:43 | 40.06726 | -107.91866 | 35932 ft | 404 kts | 272° |
| 2026-05-06 01:43 | 40.07027 | -107.99198 | 35937 ft | 405 kts | 274° |
| 2026-05-06 01:44 | 40.07383 | -108.06553 | 35919 ft | 407 kts | 274° |
| 2026-05-06 01:44 | 40.07724 | -108.13934 | 35905 ft | 408 kts | 274° |
| 2026-05-06 01:45 | 40.08053 | -108.21331 | 35831 ft | 409 kts | 274° |
| 2026-05-06 01:45 | 40.08376 | -108.28706 | 35837 ft | 410 kts | 274° |
| 2026-05-06 01:46 | 40.08695 | -108.36125 | 35821 ft | 409 kts | 274° |
| 2026-05-06 01:46 | 40.09008 | -108.43534 | 35888 ft | 409 kts | 274° |
| 2026-05-06 01:47 | 40.09317 | -108.51090 | 35815 ft | 423 kts | 276° |
| 2026-05-06 01:47 | 40.09636 | -108.58818 | 35810 ft | 426 kts | 276° |
| 2026-05-06 01:48 | 40.09946 | -108.66477 | 35810 ft | 425 kts | 276° |
| 2026-05-06 01:48 | 40.10254 | -108.74196 | 35801 ft | 425 kts | 275° |
| 2026-05-06 01:49 | 40.10556 | -108.81916 | 35803 ft | 429 kts | 276° |
| 2026-05-06 01:49 | 40.10858 | -108.89729 | 35794 ft | 430 kts | 276° |
| 2026-05-06 01:50 | 40.11148 | -108.97453 | 35798 ft | 429 kts | 276° |
| 2026-05-06 01:50 | 40.11439 | -109.05233 | 35791 ft | 429 kts | 276° |
| 2026-05-06 01:51 | 40.11725 | -109.13014 | 35764 ft | 429 kts | 276° |
| 2026-05-06 01:51 | 40.12006 | -109.20859 | 35784 ft | 433 kts | 276° |
| 2026-05-06 01:52 | 40.12282 | -109.28703 | 35777 ft | 432 kts | 276° |
| 2026-05-06 01:52 | 40.12552 | -109.36487 | 35793 ft | 431 kts | 276° |
| 2026-05-06 01:53 | 40.12817 | -109.44305 | 35810 ft | 430 kts | 276° |
| 2026-05-06 01:53 | 40.13076 | -109.52110 | 35783 ft | 430 kts | 276° |
| 2026-05-06 01:54 | 40.13330 | -109.59911 | 35782 ft | 430 kts | 276° |
| 2026-05-06 01:54 | 40.13579 | -109.67711 | 35776 ft | 430 kts | 276° |
| 2026-05-06 01:55 | 40.13822 | -109.75513 | 35765 ft | 430 kts | 276° |
| 2026-05-06 01:55 | 40.14058 | -109.83266 | 35763 ft | 430 kts | 276° |
| 2026-05-06 01:56 | 40.14291 | -109.91085 | 35771 ft | 431 kts | 276° |
| 2026-05-06 01:56 | 40.14519 | -109.98918 | 35786 ft | 432 kts | 276° |
| 2026-05-06 01:57 | 40.14742 | -110.06719 | 35794 ft | 433 kts | 276° |
| 2026-05-06 01:57 | 40.14895 | -110.14595 | 35783 ft | 435 kts | 273° |
| 2026-05-06 01:58 | 40.14823 | -110.22510 | 35793 ft | 437 kts | 274° |
| 2026-05-06 01:58 | 40.14768 | -110.30467 | 35803 ft | 438 kts | 274° |
| 2026-05-06 01:59 | 40.14701 | -110.38431 | 35723 ft | 439 kts | 274° |
| 2026-05-06 01:59 | 40.14663 | -110.42428 | 35488 ft | 438 kts | 274° |
| 2026-05-06 01:59 | 40.14623 | -110.46334 | 35243 ft | 435 kts | 274° |
| 2026-05-06 02:00 | 40.14582 | -110.50290 | 34991 ft | 437 kts | 274° |
| 2026-05-06 02:00 | 40.14541 | -110.54291 | 34741 ft | 440 kts | 275° |
| 2026-05-06 02:00 | 40.14500 | -110.58308 | 34195 ft | 444 kts | 275° |
| 2026-05-06 02:00 | 40.14456 | -110.62364 | 33306 ft | 449 kts | 275° |
| 2026-05-06 02:01 | 40.14410 | -110.66465 | 32373 ft | 452 kts | 275° |
| 2026-05-06 02:01 | 40.14360 | -110.70559 | 31598 ft | 450 kts | 275° |
| 2026-05-06 02:01 | 40.14310 | -110.74591 | 30800 ft | 449 kts | 275° |
| 2026-05-06 02:01 | 40.14259 | -110.78648 | 30245 ft | 443 kts | 275° |
| 2026-05-06 02:02 | 40.14205 | -110.82652 | 29596 ft | 438 kts | 275° |
| 2026-05-06 02:02 | 40.14151 | -110.86601 | 29017 ft | 432 kts | 275° |
| 2026-05-06 02:02 | 40.14098 | -110.90497 | 28441 ft | 426 kts | 274° |
| 2026-05-06 02:02 | 40.14045 | -110.94341 | 27874 ft | 420 kts | 274° |
| 2026-05-06 02:03 | 40.13992 | -110.98134 | 27309 ft | 415 kts | 274° |
| 2026-05-06 02:03 | 40.13939 | -111.01875 | 26757 ft | 410 kts | 274° |
| 2026-05-06 02:03 | 40.13887 | -111.05581 | 26202 ft | 406 kts | 274° |
| 2026-05-06 02:03 | 40.13834 | -111.09247 | 25648 ft | 402 kts | 273° |
| 2026-05-06 02:04 | 40.13781 | -111.12832 | 25120 ft | 398 kts | 273° |
| 2026-05-06 02:04 | 40.13726 | -111.16432 | 24559 ft | 395 kts | 272° |
| 2026-05-06 02:04 | 40.13671 | -111.20006 | 24017 ft | 392 kts | 272° |
| 2026-05-06 02:04 | 40.13615 | -111.23560 | 23450 ft | 390 kts | 272° |
| 2026-05-06 02:05 | 40.13557 | -111.27087 | 22883 ft | 386 kts | 272° |
| 2026-05-06 02:05 | 40.13496 | -111.30572 | 22345 ft | 381 kts | 272° |
| 2026-05-06 02:05 | 40.13435 | -111.34016 | 21809 ft | 377 kts | 272° |
| 2026-05-06 02:05 | 40.13375 | -111.37419 | 21277 ft | 373 kts | 272° |
| 2026-05-06 02:06 | 40.13315 | -111.40746 | 20750 ft | 370 kts | 272° |
| 2026-05-06 02:06 | 40.13253 | -111.44089 | 20222 ft | 366 kts | 272° |
| 2026-05-06 02:06 | 40.13191 | -111.47398 | 19702 ft | 363 kts | 272° |
| 2026-05-06 02:06 | 40.13130 | -111.50680 | 19194 ft | 360 kts | 273° |
| 2026-05-06 02:07 | 40.13312 | -111.53949 | 18758 ft | 368 kts | 284° |
| 2026-05-06 02:07 | 40.13963 | -111.57151 | 18400 ft | 360 kts | 294° |
| 2026-05-06 02:07 | 40.14984 | -111.60089 | 17960 ft | 351 kts | 300° |
| 2026-05-06 02:07 | 40.16047 | -111.62934 | 17484 ft | 345 kts | 299° |
| 2026-05-06 02:08 | 40.17084 | -111.65737 | 17014 ft | 339 kts | 299° |
| 2026-05-06 02:08 | 40.18094 | -111.68478 | 17021 ft | 337 kts | 299° |
| 2026-05-06 02:08 | 40.19113 | -111.71235 | 17034 ft | 342 kts | 299° |
| 2026-05-06 02:08 | 40.20144 | -111.74031 | 17034 ft | 340 kts | 299° |
| 2026-05-06 02:09 | 40.21172 | -111.76823 | 17034 ft | 341 kts | 299° |
| 2026-05-06 02:09 | 40.22201 | -111.79617 | 17028 ft | 341 kts | 299° |
| 2026-05-06 02:09 | 40.23233 | -111.82424 | 17033 ft | 344 kts | 299° |
| 2026-05-06 02:09 | 40.24291 | -111.85261 | 17031 ft | 353 kts | 300° |
| 2026-05-06 02:10 | 40.25382 | -111.88158 | 17022 ft | 356 kts | 299° |
| 2026-05-06 02:10 | 40.26476 | -111.91060 | 17017 ft | 353 kts | 303° |
| 2026-05-06 02:10 | 40.27885 | -111.93620 | 16884 ft | 350 kts | 315° |
| 2026-05-06 02:10 | 40.29705 | -111.95690 | 16687 ft | 345 kts | 327° |
| 2026-05-06 02:11 | 40.31764 | -111.97286 | 16406 ft | 343 kts | 331° |
| 2026-05-06 02:11 | 40.33828 | -111.98832 | 16113 ft | 341 kts | 331° |
| 2026-05-06 02:11 | 40.35880 | -112.00378 | 15820 ft | 340 kts | 331° |
| 2026-05-06 02:11 | 40.37924 | -112.01922 | 15533 ft | 339 kts | 331° |
| 2026-05-06 02:12 | 40.39972 | -112.03440 | 15258 ft | 337 kts | 334° |
| 2026-05-06 02:12 | 40.42107 | -112.04584 | 14985 ft | 335 kts | 343° |
| 2026-05-06 02:12 | 40.44364 | -112.05274 | 14665 ft | 334 kts | 351° |
| 2026-05-06 02:12 | 40.46678 | -112.05590 | 14344 ft | 333 kts | 354° |
| 2026-05-06 02:13 | 40.48982 | -112.05889 | 14042 ft | 333 kts | 354° |
| 2026-05-06 02:13 | 40.51285 | -112.06197 | 13724 ft | 332 kts | 354° |
| 2026-05-06 02:13 | 40.53572 | -112.06505 | 13451 ft | 330 kts | 354° |
| 2026-05-06 02:13 | 40.55857 | -112.06811 | 13174 ft | 330 kts | 354° |
| 2026-05-06 02:14 | 40.58142 | -112.07117 | 12898 ft | 330 kts | 354° |
| 2026-05-06 02:14 | 40.60424 | -112.07422 | 12623 ft | 329 kts | 354° |
| 2026-05-06 02:14 | 40.62703 | -112.07726 | 12313 ft | 327 kts | 354° |
| 2026-05-06 02:14 | 40.64932 | -112.08017 | 12219 ft | 327 kts | 354° |
| 2026-05-06 02:15 | 40.67208 | -112.08284 | 12116 ft | 329 kts | 355° |
| 2026-05-06 02:15 | 40.69483 | -112.08540 | 12025 ft | 328 kts | 355° |
| 2026-05-06 02:15 | 40.71758 | -112.08797 | 12010 ft | 328 kts | 354° |
| 2026-05-06 02:15 | 40.74022 | -112.09056 | 11906 ft | 325 kts | 354° |
| 2026-05-06 02:16 | 40.76267 | -112.09315 | 11635 ft | 324 kts | 354° |
| 2026-05-06 02:16 | 40.78524 | -112.09582 | 11565 ft | 328 kts | 354° |
| 2026-05-06 02:16 | 40.80814 | -112.09855 | 11799 ft | 332 kts | 354° |
| 2026-05-06 02:16 | 40.83093 | -112.10126 | 11891 ft | 327 kts | 354° |
| 2026-05-06 02:17 | 40.85364 | -112.10393 | 11975 ft | 328 kts | 354° |
| 2026-05-06 02:17 | 40.87596 | -112.10651 | 11982 ft | 326 kts | 354° |
| 2026-05-06 02:17 | 40.89856 | -112.10913 | 11976 ft | 326 kts | 354° |
| 2026-05-06 02:17 | 40.92117 | -112.11174 | 11970 ft | 326 kts | 354° |
| 2026-05-06 02:18 | 40.94377 | -112.11436 | 11961 ft | 326 kts | 354° |
| 2026-05-06 02:18 | 40.96630 | -112.11697 | 11925 ft | 324 kts | 354° |
| 2026-05-06 02:18 | 40.98866 | -112.11956 | 11717 ft | 321 kts | 354° |
| 2026-05-06 02:18 | 41.01087 | -112.12215 | 11380 ft | 320 kts | 354° |
| 2026-05-06 02:19 | 41.03322 | -112.12474 | 11398 ft | 325 kts | 354° |
| 2026-05-06 02:19 | 41.05572 | -112.12735 | 11440 ft | 324 kts | 354° |
| 2026-05-06 02:19 | 41.07813 | -112.12995 | 11468 ft | 322 kts | 354° |
| 2026-05-06 02:19 | 41.10012 | -112.13251 | 11497 ft | 321 kts | 354° |
| 2026-05-06 02:20 | 41.14472 | -112.13772 | 11561 ft | 322 kts | 354° |
| 2026-05-06 02:20 | 41.16684 | -112.14030 | 11507 ft | 313 kts | 354° |
| 2026-05-06 02:20 | 41.18798 | -112.14274 | 11362 ft | 296 kts | 355° |
| 2026-05-06 02:21 | 41.20762 | -112.13964 | 11204 ft | 279 kts | 18° |
| 2026-05-06 02:21 | 41.22330 | -112.12588 | 11066 ft | 267 kts | 45° |
| 2026-05-06 02:21 | 41.23190 | -112.10482 | 10902 ft | 256 kts | 73° |
| 2026-05-06 02:21 | 41.23174 | -112.08214 | 10744 ft | 247 kts | 104° |
| 2026-05-06 02:22 | 41.22308 | -112.06276 | 10601 ft | 248 kts | 136° |
| 2026-05-06 02:22 | 41.20972 | -112.04821 | 10461 ft | 249 kts | 141° |
| 2026-05-06 02:22 | 41.19603 | -112.03419 | 10316 ft | 248 kts | 141° |
| 2026-05-06 02:22 | 41.18207 | -112.02072 | 10169 ft | 248 kts | 153° |
| 2026-05-06 02:23 | 41.16557 | -112.01555 | 10048 ft | 245 kts | 185° |
| 2026-05-06 02:23 | 41.14869 | -112.01840 | 9905 ft | 245 kts | 191° |
| 2026-05-06 02:23 | 41.13181 | -112.01996 | 9761 ft | 243 kts | 176° |
| 2026-05-06 02:23 | 41.11504 | -112.01702 | 9610 ft | 243 kts | 171° |
| 2026-05-06 02:24 | 41.09841 | -112.01329 | 9452 ft | 241 kts | 171° |
| 2026-05-06 02:24 | 41.08238 | -112.01015 | 9325 ft | 230 kts | 173° |
| 2026-05-06 02:24 | 41.06705 | -112.00768 | 9199 ft | 221 kts | 174° |
| 2026-05-06 02:24 | 41.05152 | -112.00557 | 9052 ft | 224 kts | 175° |
| 2026-05-06 02:25 | 41.03612 | -112.00366 | 9006 ft | 222 kts | 175° |
| 2026-05-06 02:25 | 41.02078 | -112.00185 | 8955 ft | 220 kts | 175° |
| 2026-05-06 02:25 | 41.00564 | -112.00008 | 8668 ft | 218 kts | 175° |
| 2026-05-06 02:25 | 40.99052 | -111.99831 | 8245 ft | 218 kts | 175° |
| 2026-05-06 02:26 | 40.97540 | -111.99654 | 7832 ft | 217 kts | 175° |
| 2026-05-06 02:26 | 40.96103 | -111.99485 | 7703 ft | 203 kts | 175° |
| 2026-05-06 02:26 | 40.94747 | -111.99327 | 7551 ft | 191 kts | 175° |
| 2026-05-06 02:26 | 40.93419 | -111.99171 | 7244 ft | 190 kts | 175° |
| 2026-05-06 02:27 | 40.92142 | -111.99017 | 7090 ft | 179 kts | 176° |
| 2026-05-06 02:27 | 40.90935 | -111.98873 | 6901 ft | 172 kts | 175° |
| 2026-05-06 02:27 | 40.89698 | -111.98725 | 6416 ft | 181 kts | 175° |
| 2026-05-06 02:27 | 40.88502 | -111.98565 | 6094 ft | 163 kts | 174° |
| 2026-05-06 02:28 | 40.87439 | -111.98407 | 5738 ft | 150 kts | 175° |
| 2026-05-06 02:28 | 40.86413 | -111.98305 | 5395 ft | 144 kts | 177° |
| 2026-05-06 02:28 | 40.85439 | -111.98202 | 5105 ft | 138 kts | 176° |
| 2026-05-06 02:28 | 40.84486 | -111.98094 | 4930 ft | 137 kts | 176° |
| 2026-05-06 02:29 | 40.83538 | -111.98000 | 4784 ft | 135 kts | 177° |
| 2026-05-06 02:29 | 40.82617 | -111.97912 | 4603 ft | 132 kts | 175° |
| 2026-05-06 02:29 | 40.81698 | -111.97800 | 4455 ft | 131 kts | 175° |
| 2026-05-06 02:29 | 40.80806 | -111.97698 | 4287 ft | 126 kts | 176° |
| 2026-05-06 02:30 | 40.79995 | -111.97612 | 4232 ft | 106 kts | 175° |
| 2026-05-06 02:30 | 40.79458 | -111.97548 | 4229 ft | 50 kts | 174° |
| 2026-05-06 02:30 | 40.79225 | -111.97546 | 4231 ft | 16 kts | 191° |
| 2026-05-06 02:30 | 40.79117 | -111.97587 | 4231 ft | 17 kts | 199° |
| 2026-05-06 02:31 | 40.79011 | -111.97646 | 4232 ft | 15 kts | 208° |
| 2026-05-06 02:31 | 40.78993 | -111.97659 | 4231 ft | 0 kts | 211° |
| 2026-05-06 02:31 | 40.78991 | -111.97662 | 4231 ft | 2 kts | 211° |
| 2026-05-06 02:31 | 40.78987 | -111.97664 | 4231 ft | 1 kts | 211° |
| 2026-05-06 02:32 | 40.78979 | -111.97671 | 4231 ft | 2 kts | 212° |
| 2026-05-06 02:32 | 40.78960 | -111.97687 | 4231 ft | 5 kts | 212° |
| 2026-05-06 02:32 | 40.78948 | -111.97697 | 4231 ft | 0 kts | 217° |
| 2026-05-06 02:32 | 40.78946 | -111.97704 | 4231 ft | 0 kts | 240° |
| 2026-05-06 02:33 | 40.78976 | -111.97716 | 4231 ft | 10 kts | 354° |
| 2026-05-06 02:33 | 40.79031 | -111.97718 | 4231 ft | 13 kts | 359° |
| 2026-05-06 02:33 | 40.79209 | -111.97800 | 4231 ft | 11 kts | 274° |
| 2026-05-06 02:34 | 40.79209 | -111.97913 | 4231 ft | 13 kts | 275° |
| 2026-05-06 02:34 | 40.79195 | -111.98036 | 4231 ft | 15 kts | 261° |
| 2026-05-06 02:34 | 40.79181 | -111.98186 | 4230 ft | 18 kts | 270° |
| 2026-05-06 02:34 | 40.79169 | -111.98363 | 4231 ft | 20 kts | 264° |
| 2026-05-06 02:35 | 40.79155 | -111.98555 | 4231 ft | 22 kts | 264° |
| 2026-05-06 02:35 | 40.79142 | -111.98769 | 4231 ft | 24 kts | 263° |
| 2026-05-06 02:35 | 40.79126 | -111.98913 | 4231 ft | 11 kts | 248° |
| 2026-05-06 02:35 | 40.79072 | -111.98954 | 4231 ft | 10 kts | 177° |
| 2026-05-06 02:36 | 40.79017 | -111.98977 | 4231 ft | 7 kts | 238° |
| 2026-05-06 02:36 | 40.79006 | -111.99055 | 4231 ft | 10 kts | 266° |
| 2026-05-06 02:36 | 40.79001 | -111.99122 | 4231 ft | 6 kts | 248° |
| 2026-05-06 02:36 | 40.78973 | -111.99139 | 4231 ft | 4 kts | 182° |
| 2026-05-06 02:37 | 40.78941 | -111.99136 | 4231 ft | 5 kts | 175° |
| 2026-05-06 02:37 | 40.78923 | -111.99134 | 4231 ft | 1 kts | 175° |
| 2026-05-06 02:37 | 40.78919 | -111.99134 | 4231 ft | 0 kts | 176° |